Time;durP1;ratioP1;P1;durP2;ratioP2;P2;SDS_P1;SDS_P2;PMS_P1;PMS_P2;Temp;Humidity;BMP_temperature;BMP_pressure;BME280_temperature;BME280_humidity;BME280_pressure;Samples;Min_cycle;Max_cycle;Signal;HPM_P1;HPM_P2
2023/07/27 00:01:34;;;;;;;10.23;5.40;;;;;;;;;;4914669;29;20052;-59
2023/07/27 00:04:00;;;;;;;8.67;5.50;;;;;;;;;;4914081;29;20095;-60
2023/07/27 00:06:26;;;;;;;9.57;5.17;;;;;;;;;;4914667;29;20111;-59
2023/07/27 00:08:52;;;;;;;8.47;5.53;;;;;;;;;;4914460;29;20059;-61
2023/07/27 00:11:18;;;;;;;11.00;5.20;;;;;;;;;;4912658;29;20055;-61
2023/07/27 00:13:44;;;;;;;12.17;5.20;;;;;;;;;;4914409;29;20044;-61
2023/07/27 00:16:10;;;;;;;9.30;4.97;;;;;;;;;;4914229;29;20593;-62
2023/07/27 00:18:36;;;;;;;7.63;5.20;;;;;;;;;;4914222;29;20131;-61
2023/07/27 00:21:02;;;;;;;7.57;4.87;;;;;;;;;;4914260;29;20056;-61
2023/07/27 00:23:28;;;;;;;8.53;5.33;;;;;;;;;;4914205;29;20388;-61
2023/07/27 00:25:54;;;;;;;7.57;5.20;;;;;;;;;;4914345;29;20063;-61
2023/07/27 00:28:20;;;;;;;6.80;4.97;;;;;;;;;;4914192;29;20068;-61
2023/07/27 00:30:51;;;;;;;9.97;5.93;;;;;;;;;;4913186;29;20083;-61
2023/07/27 00:33:17;;;;;;;9.87;5.50;;;;;;;;;;4897346;29;20103;-61
2023/07/27 00:35:43;;;;;;;9.03;5.93;;;;;;;;;;4913837;29;20052;-61
2023/07/27 00:38:09;;;;;;;8.23;5.03;;;;;;;;;;4913885;29;20048;-61
2023/07/27 00:40:35;;;;;;;8.33;5.30;;;;;;;;;;4913465;29;20051;-61
2023/07/27 00:43:01;;;;;;;9.83;5.33;;;;;;;;;;4913475;29;20506;-61
2023/07/27 00:45:28;;;;;;;10.93;4.60;;;;;;;;;;4913774;29;20070;-61
2023/07/27 00:47:54;;;;;;;11.67;5.77;;;;;;;;;;4913902;29;20455;-61
2023/07/27 00:50:20;;;;;;;7.83;4.50;;;;;;;;;;4913702;29;20044;-61
2023/07/27 00:52:46;;;;;;;8.80;5.00;;;;;;;;;;4913336;29;20083;-61
2023/07/27 00:55:12;;;;;;;6.63;4.77;;;;;;;;;;4913627;29;20139;-61
2023/07/27 00:57:38;;;;;;;9.23;4.93;;;;;;;;;;4913387;29;20051;-61
2023/07/27 01:00:04;;;;;;;5.97;4.73;;;;;;;;;;4913240;29;20059;-61
2023/07/27 01:02:31;;;;;;;8.40;5.63;;;;;;;;;;4913896;29;20887;-61
2023/07/27 01:04:57;;;;;;;9.83;4.77;;;;;;;;;;4913700;29;20079;-61
2023/07/27 01:07:23;;;;;;;7.73;5.47;;;;;;;;;;4913464;29;20095;-61
2023/07/27 01:09:49;;;;;;;8.00;5.03;;;;;;;;;;4913414;29;20052;-61
2023/07/27 01:12:24;;;;;;;7.37;5.20;;;;;;;;;;4913218;29;20052;-61
2023/07/27 01:14:53;;;;;;;7.37;4.83;;;;;;;;;;4913495;29;20052;-61
2023/07/27 01:17:19;;;;;;;8.53;4.77;;;;;;;;;;4913313;29;20139;-61
2023/07/27 01:20:01;;;;;;;7.90;5.30;;;;;;;;;;4913200;29;20138;-60
2023/07/27 01:22:33;;;;;;;8.80;4.80;;;;;;;;;;4913489;29;20586;-61
2023/07/27 01:25:13;;;;;;;8.70;5.37;;;;;;;;;;4913093;29;20048;-61
2023/07/27 01:27:57;;;;;;;8.17;5.27;;;;;;;;;;4912858;29;20052;-61
2023/07/27 01:30:32;;;;;;;7.50;5.43;;;;;;;;;;4913085;29;20127;-61
2023/07/27 01:33:05;;;;;;;7.97;5.23;;;;;;;;;;4913401;29;20056;-61
2023/07/27 01:35:40;;;;;;;7.88;5.05;;;;;;;;;;4912833;29;20080;-61
2023/07/27 01:38:06;;;;;;;9.70;5.43;;;;;;;;;;4912910;29;20586;-61
2023/07/27 01:40:34;;;;;;;11.40;6.20;;;;;;;;;;4912776;29;20799;-61
2023/07/27 01:43:01;;;;;;;11.50;5.63;;;;;;;;;;4912752;29;20060;-61
2023/07/27 01:45:27;;;;;;;8.27;5.13;;;;;;;;;;4912480;29;20052;-61
2023/07/27 01:47:53;;;;;;;9.57;5.70;;;;;;;;;;4912775;29;20419;-61
2023/07/27 01:50:19;;;;;;;8.83;5.20;;;;;;;;;;4912811;29;20047;-61
2023/07/27 01:52:47;;;;;;;10.60;5.83;;;;;;;;;;4912222;29;20089;-61
2023/07/27 01:55:16;;;;;;;9.33;6.03;;;;;;;;;;4912642;29;20418;-61
2023/07/27 01:57:43;;;;;;;8.80;5.60;;;;;;;;;;4912838;29;20051;-61
2023/07/27 02:00:09;;;;;;;10.63;5.77;;;;;;;;;;4912502;29;20166;-61
2023/07/27 02:02:36;;;;;;;11.40;6.30;;;;;;;;;;4912160;29;20533;-61
2023/07/27 02:05:02;;;;;;;14.13;5.40;;;;;;;;;;4912730;29;20051;-61
2023/07/27 02:07:28;;;;;;;9.43;6.10;;;;;;;;;;4912615;29;20048;-61
2023/07/27 02:09:54;;;;;;;8.73;5.47;;;;;;;;;;4917628;29;21190;-61
2023/07/27 02:12:24;;;;;;;8.53;5.83;;;;;;;;;;4929775;29;20107;-61
2023/07/27 02:14:55;;;;;;;9.20;6.47;;;;;;;;;;4930251;29;20075;-61
2023/07/27 02:17:25;;;;;;;10.63;6.30;;;;;;;;;;4923308;29;20084;-61
2023/07/27 02:19:53;;;;;;;8.53;6.43;;;;;;;;;;4912189;29;20514;-61
2023/07/27 02:22:20;;;;;;;9.03;6.17;;;;;;;;;;4911822;29;20130;-61
2023/07/27 02:24:46;;;;;;;10.07;6.03;;;;;;;;;;4912178;29;20076;-61
2023/07/27 02:27:12;;;;;;;10.03;6.53;;;;;;;;;;4912330;29;20080;-61
2023/07/27 02:29:38;;;;;;;13.97;7.03;;;;;;;;;;4912477;29;20079;-61
2023/07/27 02:32:04;;;;;;;10.13;5.93;;;;;;;;;;4911643;29;20110;-61
2023/07/27 02:34:30;;;;;;;12.07;7.07;;;;;;;;;;4912318;29;20059;-61
2023/07/27 02:36:56;;;;;;;11.63;7.00;;;;;;;;;;4912328;29;20127;-61
2023/07/27 02:39:22;;;;;;;9.47;6.07;;;;;;;;;;4912244;29;20488;-61
2023/07/27 02:41:48;;;;;;;8.70;6.20;;;;;;;;;;4912086;29;20558;-61
2023/07/27 02:44:14;;;;;;;12.30;7.00;;;;;;;;;;4912265;29;20123;-61
2023/07/27 02:46:40;;;;;;;8.83;6.23;;;;;;;;;;4911804;29;20044;-61
2023/07/27 02:49:06;;;;;;;9.00;6.37;;;;;;;;;;4911825;29;20426;-62
2023/07/27 02:51:32;;;;;;;13.10;7.70;;;;;;;;;;4912199;29;20040;-60
2023/07/27 02:53:58;;;;;;;13.77;7.10;;;;;;;;;;4912234;29;20055;-61
2023/07/27 02:56:24;;;;;;;11.10;7.67;;;;;;;;;;4911788;29;20048;-60
2023/07/27 02:58:50;;;;;;;15.30;7.97;;;;;;;;;;4912161;29;20056;-60
2023/07/27 03:01:16;;;;;;;12.53;8.23;;;;;;;;;;4911642;29;20060;-60
2023/07/27 03:03:42;;;;;;;15.93;8.50;;;;;;;;;;4913456;29;20407;-60
2023/07/27 03:06:08;;;;;;;14.77;9.10;;;;;;;;;;4915656;29;20049;-60
2023/07/27 03:08:34;;;;;;;13.00;8.77;;;;;;;;;;4915513;29;20041;-60
2023/07/27 03:11:03;;;;;;;14.73;8.50;;;;;;;;;;4915642;29;20044;-61
2023/07/27 03:13:29;;;;;;;17.20;9.20;;;;;;;;;;4915057;29;20111;-62
2023/07/27 03:15:55;;;;;;;15.47;9.20;;;;;;;;;;4915608;29;20414;-61
2023/07/27 03:18:21;;;;;;;19.33;11.00;;;;;;;;;;4915569;29;20414;-61
2023/07/27 03:20:47;;;;;;;21.60;12.00;;;;;;;;;;4915313;29;20070;-62
2023/07/27 03:23:13;;;;;;;16.60;10.83;;;;;;;;;;4915114;29;20514;-63
2023/07/27 03:25:40;;;;;;;23.20;12.77;;;;;;;;;;4914811;29;20107;-63
2023/07/27 03:28:07;;;;;;;18.93;12.93;;;;;;;;;;4915216;29;20060;-63
2023/07/27 03:30:34;;;;;;;25.73;12.67;;;;;;;;;;4915036;29;20056;-64
2023/07/27 03:33:00;;;;;;;21.03;13.43;;;;;;;;;;4914810;29;20107;-64
2023/07/27 03:35:26;;;;;;;35.93;17.00;;;;;;;;;;4915244;29;20162;-63
2023/07/27 03:37:52;;;;;;;27.77;16.13;;;;;;;;;;4914862;29;20052;-64
2023/07/27 03:40:19;;;;;;;29.87;14.97;;;;;;;;;;4914971;29;20447;-64
2023/07/27 03:42:45;;;;;;;28.13;14.03;;;;;;;;;;4915064;29;20052;-64
2023/07/27 03:45:11;;;;;;;27.53;14.50;;;;;;;;;;4914631;29;20504;-63
2023/07/27 03:47:37;;;;;;;34.77;17.07;;;;;;;;;;4915072;29;20055;-64
2023/07/27 03:50:03;;;;;;;23.73;14.03;;;;;;;;;;4914814;29;20135;-63
2023/07/27 03:52:29;;;;;;;26.93;13.97;;;;;;;;;;4914993;29;20044;-64
2023/07/27 03:54:55;;;;;;;34.63;15.27;;;;;;;;;;4914648;29;20434;-63
2023/07/27 03:57:21;;;;;;;28.47;15.47;;;;;;;;;;4914274;29;20115;-63
2023/07/27 03:59:47;;;;;;;36.47;15.23;;;;;;;;;;4914502;29;20133;-63
2023/07/27 04:02:13;;;;;;;26.67;15.37;;;;;;;;;;4915016;29;20043;-63
2023/07/27 04:04:39;;;;;;;27.53;15.57;;;;;;;;;;4914757;29;20140;-63
2023/07/27 04:07:05;;;;;;;36.27;17.13;;;;;;;;;;4914590;29;20099;-63
2023/07/27 04:09:31;;;;;;;34.63;17.40;;;;;;;;;;4914199;29;20048;-63
2023/07/27 04:11:57;;;;;;;25.03;14.20;;;;;;;;;;4914454;29;20047;-63
2023/07/27 04:14:23;;;;;;;23.13;14.30;;;;;;;;;;4913961;29;20621;-63
2023/07/27 04:16:49;;;;;;;27.37;14.90;;;;;;;;;;4914090;29;20171;-63
2023/07/27 04:19:15;;;;;;;42.20;19.30;;;;;;;;;;4913810;29;20565;-65
2023/07/27 04:21:41;;;;;;;34.77;17.57;;;;;;;;;;4913923;29;20099;-63
2023/07/27 04:24:07;;;;;;;39.70;19.23;;;;;;;;;;4913884;29;20084;-63
2023/07/27 04:26:33;;;;;;;36.77;17.83;;;;;;;;;;4913093;29;20066;-63
2023/07/27 04:28:59;;;;;;;30.63;16.17;;;;;;;;;;4913054;29;20052;-63
2023/07/27 04:31:25;;;;;;;33.67;17.50;;;;;;;;;;4912293;29;20048;-63
2023/07/27 04:33:51;;;;;;;33.37;15.57;;;;;;;;;;4912269;29;20040;-63
2023/07/27 04:36:17;;;;;;;33.70;17.33;;;;;;;;;;4913870;29;20044;-63
2023/07/27 04:38:43;;;;;;;32.87;16.67;;;;;;;;;;4913599;29;20138;-63
2023/07/27 04:41:09;;;;;;;27.83;15.80;;;;;;;;;;4913576;29;20048;-63
2023/07/27 04:43:35;;;;;;;39.37;18.93;;;;;;;;;;4913826;29;20526;-63
2023/07/27 04:46:01;;;;;;;34.47;17.33;;;;;;;;;;4912935;29;20121;-64
2023/07/27 04:48:27;;;;;;;31.10;15.53;;;;;;;;;;4896874;29;20044;-63
2023/07/27 04:50:53;;;;;;;28.77;15.47;;;;;;;;;;4913610;29;20048;-63
2023/07/27 04:53:19;;;;;;;23.80;14.60;;;;;;;;;;4913074;29;20047;-63
2023/07/27 04:55:46;;;;;;;29.90;15.67;;;;;;;;;;4913414;29;20107;-63
2023/07/27 04:58:12;;;;;;;42.30;16.47;;;;;;;;;;4913810;29;20054;-63
2023/07/27 05:00:38;;;;;;;31.20;15.63;;;;;;;;;;4913631;29;20047;-63
2023/07/27 05:03:04;;;;;;;26.03;13.43;;;;;;;;;;4913609;29;20111;-64
2023/07/27 05:05:30;;;;;;;25.13;13.13;;;;;;;;;;4913491;29;20529;-63
2023/07/27 05:07:56;;;;;;;23.77;12.57;;;;;;;;;;4913982;29;20048;-63
2023/07/27 05:10:23;;;;;;;25.60;13.47;;;;;;;;;;4913837;29;20051;-63
2023/07/27 05:12:49;;;;;;;23.43;12.33;;;;;;;;;;4913205;29;20720;-63
2023/07/27 05:15:15;;;;;;;24.30;12.87;;;;;;;;;;4912976;29;20538;-63
2023/07/27 05:17:41;;;;;;;29.73;13.57;;;;;;;;;;4913227;29;20059;-63
2023/07/27 05:20:08;;;;;;;22.23;13.03;;;;;;;;;;4895899;29;20131;-63
2023/07/27 05:22:34;;;;;;;25.83;13.87;;;;;;;;;;4913243;29;20059;-63
2023/07/27 05:25:00;;;;;;;22.73;13.17;;;;;;;;;;4895330;29;20056;-63
2023/07/27 05:27:26;;;;;;;36.17;17.67;;;;;;;;;;4912640;29;20054;-63
2023/07/27 05:29:52;;;;;;;29.57;16.10;;;;;;;;;;4912735;29;20503;-63
2023/07/27 05:32:18;;;;;;;35.17;15.87;;;;;;;;;;4912944;29;20048;-63
2023/07/27 05:34:44;;;;;;;42.80;19.63;;;;;;;;;;4912471;29;20055;-63
2023/07/27 05:37:10;;;;;;;56.03;21.60;;;;;;;;;;4912839;29;20570;-63
2023/07/27 05:39:36;;;;;;;37.30;18.77;;;;;;;;;;4912359;29;20079;-63
2023/07/27 05:42:02;;;;;;;44.37;20.70;;;;;;;;;;4912195;29;20052;-63
2023/07/27 05:44:28;;;;;;;46.70;20.93;;;;;;;;;;4912941;29;20045;-64
2023/07/27 05:46:56;;;;;;;35.27;19.33;;;;;;;;;;4912871;29;20072;-63
2023/07/27 05:49:22;;;;;;;53.27;23.97;;;;;;;;;;4912378;29;20056;-63
2023/07/27 05:51:48;;;;;;;37.77;19.83;;;;;;;;;;4912308;29;20123;-63
2023/07/27 05:54:14;;;;;;;51.40;21.80;;;;;;;;;;4912604;29;20047;-63
2023/07/27 05:56:40;;;;;;;50.77;23.07;;;;;;;;;;4912481;29;20048;-63
2023/07/27 05:59:06;;;;;;;54.23;23.87;;;;;;;;;;4912428;29;20067;-63
2023/07/27 06:01:32;;;;;;;42.37;22.83;;;;;;;;;;4912507;29;20183;-63
2023/07/27 06:04:00;;;;;;;46.20;22.37;;;;;;;;;;4895629;29;20059;-63
2023/07/27 06:06:26;;;;;;;43.30;23.17;;;;;;;;;;4911813;29;20058;-63
2023/07/27 06:08:53;;;;;;;52.17;25.77;;;;;;;;;;4912348;29;20048;-64
2023/07/27 06:11:19;;;;;;;57.67;26.20;;;;;;;;;;4912318;29;20442;-63
2023/07/27 06:13:46;;;;;;;46.50;23.90;;;;;;;;;;4911671;29;20091;-63
2023/07/27 06:16:12;;;;;;;54.53;26.20;;;;;;;;;;4911603;29;20052;-63
2023/07/27 06:18:38;;;;;;;42.67;22.87;;;;;;;;;;4912270;29;20048;-63
2023/07/27 06:21:04;;;;;;;45.70;23.03;;;;;;;;;;4912057;29;20354;-63
2023/07/27 06:23:30;;;;;;;54.60;26.67;;;;;;;;;;4912317;29;20086;-63
2023/07/27 06:25:56;;;;;;;56.07;26.87;;;;;;;;;;4911661;29;20107;-63
2023/07/27 06:28:22;;;;;;;44.57;24.07;;;;;;;;;;4912388;29;20111;-63
2023/07/27 06:30:48;;;;;;;56.63;27.07;;;;;;;;;;4912220;29;20510;-63
2023/07/27 06:33:14;;;;;;;43.00;24.03;;;;;;;;;;4911496;29;20491;-63
2023/07/27 06:35:40;;;;;;;51.80;25.47;;;;;;;;;;4911473;29;20269;-63
2023/07/27 06:38:07;;;;;;;52.00;26.50;;;;;;;;;;4912080;29;20524;-63
2023/07/27 06:40:33;;;;;;;59.20;28.33;;;;;;;;;;4914117;29;20100;-63
2023/07/27 06:42:59;;;;;;;52.20;27.03;;;;;;;;;;4914852;29;20043;-63
2023/07/27 06:45:25;;;;;;;52.10;27.17;;;;;;;;;;4915536;29;20372;-64
2023/07/27 06:47:51;;;;;;;51.50;25.97;;;;;;;;;;4898787;29;20044;-63
2023/07/27 06:50:17;;;;;;;48.93;25.57;;;;;;;;;;4915045;29;20442;-64
2023/07/27 06:52:43;;;;;;;51.23;25.67;;;;;;;;;;4914816;29;20392;-64
2023/07/27 06:55:09;;;;;;;57.20;27.53;;;;;;;;;;4915421;29;20055;-64
2023/07/27 06:57:35;;;;;;;46.57;26.37;;;;;;;;;;4915092;29;20083;-64
2023/07/27 07:00:01;;;;;;;47.60;25.60;;;;;;;;;;4914647;29;20597;-63
2023/07/27 07:02:27;;;;;;;36.13;22.30;;;;;;;;;;4915312;29;20142;-64
2023/07/27 07:04:53;;;;;;;40.53;22.53;;;;;;;;;;4898500;29;20056;-64
2023/07/27 07:07:19;;;;;;;35.07;20.00;;;;;;;;;;4915000;29;20589;-63
2023/07/27 07:09:46;;;;;;;42.07;22.23;;;;;;;;;;4915292;29;20055;-63
2023/07/27 07:12:12;;;;;;;39.57;21.13;;;;;;;;;;4914858;29;20054;-64
2023/07/27 07:14:38;;;;;;;36.33;20.97;;;;;;;;;;4915003;29;20398;-64
2023/07/27 07:17:05;;;;;;;33.93;18.57;;;;;;;;;;4914994;29;20151;-64
2023/07/27 07:19:31;;;;;;;33.27;18.83;;;;;;;;;;4915123;29;20510;-64
2023/07/27 07:21:57;;;;;;;46.53;20.50;;;;;;;;;;4914234;29;20048;-64
2023/07/27 07:24:23;;;;;;;30.43;16.57;;;;;;;;;;4914280;29;20052;-64
2023/07/27 07:26:49;;;;;;;36.20;18.30;;;;;;;;;;4915016;29;20052;-64
2023/07/27 07:29:15;;;;;;;38.67;19.13;;;;;;;;;;4914687;29;20495;-64
2023/07/27 07:31:41;;;;;;;22.93;14.77;;;;;;;;;;4914697;29;20696;-64
2023/07/27 07:34:07;;;;;;;27.93;16.20;;;;;;;;;;4914033;29;20179;-64
2023/07/27 07:36:33;;;;;;;29.90;16.67;;;;;;;;;;4914797;29;20091;-64
2023/07/27 07:38:59;;;;;;;25.93;16.20;;;;;;;;;;4914467;29;20092;-64
2023/07/27 07:41:25;;;;;;;35.60;17.97;;;;;;;;;;4914139;29;20048;-65
2023/07/27 07:43:51;;;;;;;23.30;14.90;;;;;;;;;;4914139;29;20040;-64
2023/07/27 07:46:18;;;;;;;23.37;13.33;;;;;;;;;;4914349;29;20411;-64
2023/07/27 07:48:44;;;;;;;26.23;13.53;;;;;;;;;;4913941;29;20051;-64
2023/07/27 07:51:14;;;;;;;43.83;17.40;;;;;;;;;;4914211;29;20561;-64
2023/07/27 07:53:40;;;;;;;31.03;13.43;;;;;;;;;;4913996;29;20058;-64
2023/07/27 07:56:12;;;;;;;22.87;13.00;;;;;;;;;;4913940;29;20138;-64
2023/07/27 07:58:38;;;;;;;22.20;13.07;;;;;;;;;;4914118;29;20499;-64
2023/07/27 08:01:04;;;;;;;29.90;15.53;;;;;;;;;;4914135;29;20044;-64
2023/07/27 08:03:29;;;;;;;22.53;13.60;;;;;;;;;;4914228;29;20494;-64
2023/07/27 08:05:56;;;;;;;21.00;11.77;;;;;;;;;;4914195;29;20044;-65
2023/07/27 08:08:22;;;;;;;22.77;12.60;;;;;;;;;;4913750;29;20054;-64
2023/07/27 08:10:47;;;;;;;22.87;12.13;;;;;;;;;;4896934;29;20052;-64
2023/07/27 08:13:13;;;;;;;25.50;11.93;;;;;;;;;;4914103;29;20525;-64
2023/07/27 08:15:39;;;;;;;27.13;11.20;;;;;;;;;;4913397;29;20129;-65
2023/07/27 08:18:05;;;;;;;32.80;13.10;;;;;;;;;;4897259;29;20491;-64
2023/07/27 08:20:31;;;;;;;21.57;11.63;;;;;;;;;;4913708;29;20079;-64
2023/07/27 08:22:57;;;;;;;19.77;9.00;;;;;;;;;;4913765;29;20083;-65
2023/07/27 08:25:23;;;;;;;20.50;10.50;;;;;;;;;;4913611;29;20515;-64
2023/07/27 08:27:50;;;;;;;19.50;11.17;;;;;;;;;;4913848;29;20107;-64
2023/07/27 08:30:16;;;;;;;22.17;10.97;;;;;;;;;;4913237;29;20127;-64
2023/07/27 08:32:43;;;;;;;13.93;8.43;;;;;;;;;;4913625;29;20060;-64
2023/07/27 08:35:09;;;;;;;13.37;8.47;;;;;;;;;;4913697;29;20052;-64
2023/07/27 08:37:35;;;;;;;19.43;9.77;;;;;;;;;;4913544;29;20044;-64
2023/07/27 08:40:01;;;;;;;11.40;7.43;;;;;;;;;;4913002;29;20100;-64
2023/07/27 08:42:27;;;;;;;15.67;8.47;;;;;;;;;;4913630;29;20422;-64
2023/07/27 08:44:53;;;;;;;13.10;8.30;;;;;;;;;;4912596;29;20103;-64
2023/07/27 08:47:19;;;;;;;13.27;8.00;;;;;;;;;;4910634;29;20049;-64
2023/07/27 08:49:45;;;;;;;7.20;5.00;;;;;;;;;;4912417;29;20119;-64
2023/07/27 08:52:14;;;;;;;11.57;7.43;;;;;;;;;;4913300;29;20070;-63
2023/07/27 08:54:40;;;;;;;12.27;7.20;;;;;;;;;;4912694;29;20498;-64
2023/07/27 08:57:06;;;;;;;19.63;8.83;;;;;;;;;;4913173;29;20050;-64
2023/07/27 08:59:33;;;;;;;11.27;7.00;;;;;;;;;;4911835;29;20048;-63
2023/07/27 09:01:59;;;;;;;10.30;6.07;;;;;;;;;;4912355;29;20055;-63
2023/07/27 09:04:25;;;;;;;10.70;6.37;;;;;;;;;;4913282;29;20096;-63
2023/07/27 09:06:51;;;;;;;10.40;5.90;;;;;;;;;;4913450;29;20044;-64
2023/07/27 09:09:17;;;;;;;14.30;6.93;;;;;;;;;;4913286;29;20455;-63
2023/07/27 09:11:44;;;;;;;7.33;5.10;;;;;;;;;;4912518;29;20083;-63
2023/07/27 09:14:10;;;;;;;10.57;5.57;;;;;;;;;;4910630;29;20092;-63
2023/07/27 09:16:36;;;;;;;9.87;5.93;;;;;;;;;;4912945;29;20487;-63
2023/07/27 09:19:03;;;;;;;6.47;4.10;;;;;;;;;;4912776;29;20055;-63
2023/07/27 09:21:37;;;;;;;6.27;4.47;;;;;;;;;;4912899;29;20115;-63
2023/07/27 09:24:04;;;;;;;5.03;3.67;;;;;;;;;;4912669;29;20320;-63
2023/07/27 09:26:30;;;;;;;7.20;4.63;;;;;;;;;;4910917;29;20060;-63
2023/07/27 09:28:56;;;;;;;6.27;4.47;;;;;;;;;;4913106;29;20690;-63
2023/07/27 09:31:22;;;;;;;7.90;5.13;;;;;;;;;;4913123;29;20055;-63
2023/07/27 09:33:50;;;;;;;6.23;4.83;;;;;;;;;;4912303;29;20423;-63
2023/07/27 09:36:17;;;;;;;5.27;4.20;;;;;;;;;;4907688;29;20731;-63
2023/07/27 09:38:43;;;;;;;7.47;5.00;;;;;;;;;;4912104;29;20510;-63
2023/07/27 09:41:09;;;;;;;5.00;4.30;;;;;;;;;;4912296;29;20092;-63
2023/07/27 09:43:38;;;;;;;8.77;5.77;;;;;;;;;;4912147;29;20096;-64
2023/07/27 09:46:05;;;;;;;6.70;5.53;;;;;;;;;;4911324;29;20047;-64
2023/07/27 09:48:31;;;;;;;6.30;4.97;;;;;;;;;;4912328;29;20103;-63
2023/07/27 09:51:01;;;;;;;8.67;6.77;;;;;;;;;;4901255;29;20063;-63
2023/07/27 09:53:31;;;;;;;5.83;5.00;;;;;;;;;;4920946;29;20139;-63
2023/07/27 09:55:59;;;;;;;7.43;6.10;;;;;;;;;;4912116;29;20048;-63
2023/07/27 09:58:25;;;;;;;5.70;4.47;;;;;;;;;;4910162;29;20048;-63
2023/07/27 10:00:51;;;;;;;6.70;6.00;;;;;;;;;;4923964;29;20009;-63
2023/07/27 10:03:17;;;;;;;7.50;4.53;;;;;;;;;;4923767;29;20586;-63
2023/07/27 10:05:43;;;;;;;6.13;5.40;;;;;;;;;;4911869;29;20092;-63
2023/07/27 10:08:09;;;;;;;4.13;3.73;;;;;;;;;;4911828;29;20046;-63
2023/07/27 10:10:38;;;;;;;5.77;5.07;;;;;;;;;;4910680;29;20418;-64
2023/07/27 10:13:31;;;;;;;6.73;5.87;;;;;;;;;;4905900;29;20103;-63
2023/07/27 10:15:57;;;;;;;7.40;5.10;;;;;;;;;;4904555;29;20470;-63
2023/07/27 10:18:24;;;;;;;8.00;6.67;;;;;;;;;;4912251;29;20051;-64
2023/07/27 10:20:50;;;;;;;5.90;5.30;;;;;;;;;;4929357;29;20086;-63
2023/07/27 10:23:26;;;;;;;5.77;4.43;;;;;;;;;;4919069;29;20096;-63
2023/07/27 10:25:55;;;;;;;4.27;3.87;;;;;;;;;;4912074;29;20087;-64
2023/07/27 10:28:43;;;;;;;6.00;5.40;;;;;;;;;;4912395;29;20099;-63
2023/07/27 10:31:25;;;;;;;10.50;4.67;;;;;;;;;;4911586;29;20510;-63
2023/07/27 10:34:03;;;;;;;4.93;4.33;;;;;;;;;;4899047;29;20051;-63
2023/07/27 10:36:47;;;;;;;4.90;4.43;;;;;;;;;;4912440;29;20402;-63
2023/07/27 10:39:18;;;;;;;6.10;5.50;;;;;;;;;;4912458;29;20388;-63
2023/07/27 10:42:01;;;;;;;8.30;5.03;;;;;;;;;;4911695;29;20395;-63
2023/07/27 10:44:27;;;;;;;6.13;5.55;;;;;;;;;;4912212;29;20700;-64
2023/07/27 10:47:00;;;;;;;7.00;6.40;;;;;;;;;;4893306;29;20094;-63
2023/07/27 10:49:26;;;;;;;5.15;4.65;;;;;;;;;;4896466;29;20443;-63
2023/07/27 10:51:52;;;;;;;7.33;6.53;;;;;;;;;;4911488;29;20127;-63
2023/07/27 10:54:19;;;;;;;6.73;6.03;;;;;;;;;;4918861;29;20119;-63
2023/07/27 10:56:45;;;;;;;10.60;8.00;;;;;;;;;;4911214;29;20107;-63
2023/07/27 10:59:12;;;;;;;8.73;7.07;;;;;;;;;;4909149;29;20059;-64
2023/07/27 11:01:38;;;;;;;9.23;6.90;;;;;;;;;;4912443;29;20159;-63
2023/07/27 11:04:05;;;;;;;8.43;7.43;;;;;;;;;;4911897;29;20555;-64
2023/07/27 11:06:31;;;;;;;18.00;10.80;;;;;;;;;;4912116;29;20052;-64
2023/07/27 11:08:57;;;;;;;9.13;7.83;;;;;;;;;;4911740;29;20156;-64
2023/07/27 11:11:24;;;;;;;12.07;9.37;;;;;;;;;;4911834;29;20051;-63
2023/07/27 11:13:50;;;;;;;11.13;8.70;;;;;;;;;;4912024;29;20143;-64
2023/07/27 11:16:20;;;;;;;16.20;10.27;;;;;;;;;;4911853;29;20052;-64
2023/07/27 11:18:46;;;;;;;14.83;9.10;;;;;;;;;;4911836;29;20040;-64
2023/07/27 11:21:12;;;;;;;14.13;9.53;;;;;;;;;;4911030;29;20410;-63
2023/07/27 11:23:46;;;;;;;10.23;7.50;;;;;;;;;;4911326;29;20140;-64
2023/07/27 11:26:12;;;;;;;10.37;7.80;;;;;;;;;;4911980;29;20522;-64
2023/07/27 11:28:39;;;;;;;9.47;6.53;;;;;;;;;;4917582;29;20048;-64
2023/07/27 11:31:06;;;;;;;6.40;5.80;;;;;;;;;;4930550;29;20048;-63
2023/07/27 11:33:35;;;;;;;7.10;5.40;;;;;;;;;;4927837;29;20039;-64
2023/07/27 11:36:02;;;;;;;4.97;4.37;;;;;;;;;;4934039;29;20058;-64
2023/07/27 11:38:28;;;;;;;4.63;4.23;;;;;;;;;;4933554;29;20055;-63
2023/07/27 11:40:57;;;;;;;4.23;3.83;;;;;;;;;;4922900;29;20051;-64
2023/07/27 11:43:23;;;;;;;5.10;4.60;;;;;;;;;;4919837;29;20521;-64
2023/07/27 11:45:49;;;;;;;5.77;5.27;;;;;;;;;;4933753;29;20498;-64
2023/07/27 11:48:16;;;;;;;4.07;3.67;;;;;;;;;;4917551;29;20056;-64
2023/07/27 11:50:44;;;;;;;4.67;4.07;;;;;;;;;;4913068;29;20052;-64
2023/07/27 11:53:13;;;;;;;3.50;3.20;;;;;;;;;;4914306;29;20565;-64
2023/07/27 11:55:39;;;;;;;4.87;3.50;;;;;;;;;;4914319;29;20220;-63
2023/07/27 11:58:08;;;;;;;5.53;2.87;;;;;;;;;;4914771;29;20075;-64
2023/07/27 12:00:34;;;;;;;3.67;2.43;;;;;;;;;;4913626;29;20052;-64
2023/07/27 12:03:00;;;;;;;3.37;2.23;;;;;;;;;;4912567;29;20083;-64
2023/07/27 12:05:26;;;;;;;5.40;2.73;;;;;;;;;;4919192;29;20518;-64
2023/07/27 12:07:56;;;;;;;3.20;2.30;;;;;;;;;;4928035;29;20044;-64
2023/07/27 12:10:22;;;;;;;3.30;2.30;;;;;;;;;;4913649;29;20048;-64
2023/07/27 12:12:51;;;;;;;2.23;2.00;;;;;;;;;;4911947;29;20099;-64
2023/07/27 12:15:30;;;;;;;2.50;1.60;;;;;;;;;;4919535;29;20062;-64
2023/07/27 12:17:56;;;;;;;2.17;1.73;;;;;;;;;;4897810;29;20076;-64
2023/07/27 12:20:26;;;;;;;3.30;2.20;;;;;;;;;;4916833;29;20502;-64
2023/07/27 12:22:52;;;;;;;4.57;2.93;;;;;;;;;;4934435;29;20051;-64
2023/07/27 12:25:19;;;;;;;3.60;3.10;;;;;;;;;;4915606;29;20412;-64
2023/07/27 12:27:45;;;;;;;6.67;3.40;;;;;;;;;;4932941;29;20051;-64
2023/07/27 12:30:11;;;;;;;4.53;3.80;;;;;;;;;;4915526;29;20059;-64
2023/07/27 12:32:37;;;;;;;5.10;3.30;;;;;;;;;;4908105;29;20044;-64
2023/07/27 12:35:04;;;;;;;6.57;3.17;;;;;;;;;;4914767;29;20060;-64
2023/07/27 12:37:30;;;;;;;3.57;2.80;;;;;;;;;;4901384;29;20123;-64
2023/07/27 12:39:56;;;;;;;2.90;2.60;;;;;;;;;;4914544;29;20052;-64
2023/07/27 12:42:22;;;;;;;5.43;2.80;;;;;;;;;;4914358;29;20392;-64
2023/07/27 12:44:49;;;;;;;5.20;3.27;;;;;;;;;;4914852;29;20139;-64
2023/07/27 12:47:15;;;;;;;4.33;3.30;;;;;;;;;;4896577;29;20062;-64
2023/07/27 12:49:41;;;;;;;6.60;4.63;;;;;;;;;;4914652;29;20059;-64
2023/07/27 12:52:08;;;;;;;6.00;3.73;;;;;;;;;;4915342;29;20051;-64
2023/07/27 12:54:34;;;;;;;10.40;4.50;;;;;;;;;;4914598;29;20131;-64
2023/07/27 12:57:02;;;;;;;13.33;5.77;;;;;;;;;;4914419;29;20127;-64
2023/07/27 12:59:28;;;;;;;7.37;4.73;;;;;;;;;;4915066;29;20052;-64
2023/07/27 13:01:54;;;;;;;7.97;5.10;;;;;;;;;;4914619;29;20050;-64
2023/07/27 13:04:20;;;;;;;10.80;3.30;;;;;;;;;;4913492;29;20048;-65
2023/07/27 13:06:46;;;;;;;4.67;2.03;;;;;;;;;;4914750;29;20044;-64
2023/07/27 13:09:13;;;;;;;3.80;1.80;;;;;;;;;;4914228;29;20628;-64
2023/07/27 13:11:39;;;;;;;3.10;1.70;;;;;;;;;;4928527;29;20082;-64
2023/07/27 13:14:05;;;;;;;4.17;2.00;;;;;;;;;;4913719;29;20086;-64
2023/07/27 13:16:34;;;;;;;4.03;2.73;;;;;;;;;;4913463;29;20051;-64
2023/07/27 13:18:59;;;;;;;3.23;2.30;;;;;;;;;;4913418;29;20052;-64
2023/07/27 13:21:25;;;;;;;2.50;1.43;;;;;;;;;;4913192;29;20055;-64
2023/07/27 13:23:51;;;;;;;4.73;2.43;;;;;;;;;;4913850;29;20631;-64
2023/07/27 13:26:18;;;;;;;4.63;2.10;;;;;;;;;;4911694;29;20052;-64
2023/07/27 13:28:43;;;;;;;2.50;1.50;;;;;;;;;;4911099;29;20581;-64
2023/07/27 13:31:14;;;;;;;4.43;1.77;;;;;;;;;;4912678;29;20048;-64
2023/07/27 13:33:40;;;;;;;4.20;1.90;;;;;;;;;;4913387;29;20530;-64
2023/07/27 13:36:06;;;;;;;3.40;1.90;;;;;;;;;;4913320;29;20052;-64
2023/07/27 13:38:31;;;;;;;4.50;2.17;;;;;;;;;;4913919;29;20048;-64
2023/07/27 13:40:57;;;;;;;2.80;1.73;;;;;;;;;;4912867;29;20056;-64
2023/07/27 13:43:23;;;;;;;5.60;3.13;;;;;;;;;;4911921;29;20473;-64
2023/07/27 13:45:50;;;;;;;3.47;2.17;;;;;;;;;;4907745;29;20058;-64
2023/07/27 13:48:16;;;;;;;4.30;1.60;;;;;;;;;;4910422;29;20063;-64
2023/07/27 13:50:42;;;;;;;4.33;1.73;;;;;;;;;;4911257;29;20048;-64
2023/07/27 13:53:13;;;;;;;6.10;2.40;;;;;;;;;;4910620;29;20040;-64
2023/07/27 13:55:38;;;;;;;4.57;2.07;;;;;;;;;;4912680;29;20056;-65
2023/07/27 13:58:04;;;;;;;9.53;3.30;;;;;;;;;;4912792;29;20418;-65
2023/07/27 14:00:30;;;;;;;8.23;2.30;;;;;;;;;;4895573;29;20056;-65
2023/07/27 14:02:56;;;;;;;7.90;3.00;;;;;;;;;;4920113;29;20050;-64
2023/07/27 14:05:22;;;;;;;3.20;1.70;;;;;;;;;;4912900;29;20040;-64
2023/07/27 14:07:48;;;;;;;6.53;2.10;;;;;;;;;;4912839;29;20094;-64
2023/07/27 14:10:14;;;;;;;6.33;2.47;;;;;;;;;;4912944;29;20044;-64
2023/07/27 14:12:41;;;;;;;9.70;2.70;;;;;;;;;;4912457;29;20083;-65
2023/07/27 14:15:07;;;;;;;5.93;2.60;;;;;;;;;;4903983;29;20056;-65
2023/07/27 14:17:34;;;;;;;7.10;2.47;;;;;;;;;;4910040;29;20072;-65
2023/07/27 14:20:00;;;;;;;4.80;2.40;;;;;;;;;;4912272;29;20056;-64
2023/07/27 14:22:26;;;;;;;4.83;2.17;;;;;;;;;;4911880;29;20468;-64
2023/07/27 14:24:52;;;;;;;6.00;2.70;;;;;;;;;;4912556;29;20048;-64
2023/07/27 14:27:18;;;;;;;4.83;2.40;;;;;;;;;;4912494;29;20453;-64
2023/07/27 14:29:44;;;;;;;7.57;2.70;;;;;;;;;;4911121;29;20099;-64